Time;durP1;ratioP1;P1;durP2;ratioP2;P2;SDS_P1;SDS_P2;PMS_P1;PMS_P2;Temp;Humidity;BMP_temperature;BMP_pressure;BME280_temperature;BME280_humidity;BME280_pressure;Samples;Min_cycle;Max_cycle;Signal;HPM_P1;HPM_P2
2023/05/01 00:01:25;;;;;;;9.83;5.20;;;5.00;99.90;;;;;;5076468;28;20225;-80
2023/05/01 00:03:53;;;;;;;9.40;4.93;;;5.00;99.90;;;;;;5091179;28;20204;-79
2023/05/01 00:06:20;;;;;;;9.00;5.93;;;5.10;99.90;;;;;;5096743;28;20232;-78
2023/05/01 00:08:47;;;;;;;7.30;4.50;;;5.00;99.90;;;;;;5086196;28;20190;-79
2023/05/01 00:11:14;;;;;;;12.13;5.03;;;5.10;99.90;;;;;;5076444;28;20245;-79
2023/05/01 00:13:41;;;;;;;9.77;4.93;;;4.90;99.90;;;;;;5093586;28;20280;-80
2023/05/01 00:16:09;;;;;;;9.03;4.17;;;4.70;99.90;;;;;;5095835;28;20648;-79
2023/05/01 00:18:35;;;;;;;6.63;4.53;;;4.50;99.90;;;;;;5098763;28;20232;-79
2023/05/01 00:21:04;;;;;;;7.47;4.27;;;4.20;99.90;;;;;;5101388;28;20227;-80
2023/05/01 00:23:31;;;;;;;8.93;4.60;;;4.10;99.90;;;;;;5081109;28;20903;-78
2023/05/01 00:25:57;;;;;;;6.37;4.30;;;4.10;99.90;;;;;;5083361;28;20222;-79
2023/05/01 00:28:24;;;;;;;6.90;4.27;;;4.10;99.90;;;;;;5079560;28;20202;-79
2023/05/01 00:30:53;;;;;;;10.63;5.43;;;4.30;99.90;;;;;;5104400;28;20257;-77
2023/05/01 00:33:20;;;;;;;10.67;4.83;;;4.50;99.90;;;;;;5096403;28;20200;-79
2023/05/01 00:35:47;;;;;;;10.57;4.60;;;4.50;99.90;;;;;;5090276;28;20203;-80
2023/05/01 00:38:15;;;;;;;8.80;5.30;;;4.20;99.90;;;;;;5076719;28;20198;-78
2023/05/01 00:40:42;;;;;;;9.67;5.03;;;4.00;99.90;;;;;;5074369;28;20579;-79
2023/05/01 00:43:10;;;;;;;7.53;4.97;;;4.00;99.90;;;;;;5076757;28;20749;-80
2023/05/01 00:45:37;;;;;;;8.67;4.87;;;4.10;99.90;;;;;;5075250;28;20236;-80
2023/05/01 00:48:04;;;;;;;12.00;5.53;;;4.20;99.90;;;;;;5074979;28;20210;-80
2023/05/01 00:50:31;;;;;;;9.03;5.17;;;4.00;99.90;;;;;;5092343;28;20293;-80
2023/05/01 00:52:58;;;;;;;8.63;5.20;;;4.00;99.90;;;;;;5087472;28;20206;-78
2023/05/01 00:55:26;;;;;;;9.00;4.80;;;4.00;99.90;;;;;;5077315;28;20265;-79
2023/05/01 00:57:55;;;;;;;7.10;4.87;;;4.20;99.90;;;;;;5089114;28;20229;-79
2023/05/01 01:00:23;;;;;;;9.93;5.30;;;4.40;99.90;;;;;;5074211;28;20214;-79
2023/05/01 01:02:50;;;;;;;7.90;4.80;;;4.50;99.90;;;;;;5073208;28;20210;-79
2023/05/01 01:05:18;;;;;;;7.60;4.40;;;4.50;99.90;;;;;;5074456;28;20228;-79
2023/05/01 01:07:53;;;;;;;8.77;5.10;;;4.40;99.90;;;;;;5086079;28;20202;-78
2023/05/01 01:10:33;;;;;;;8.67;4.73;;;4.40;99.90;;;;;;5082734;28;20209;-80
2023/05/01 01:13:08;;;;;;;6.13;4.33;;;4.10;99.90;;;;;;5093749;28;20205;-78
2023/05/01 01:15:39;;;;;;;6.97;4.77;;;4.00;99.90;;;;;;5074387;28;20329;-80
2023/05/01 01:18:12;;;;;;;10.30;5.03;;;4.00;99.90;;;;;;5073938;28;20689;-78
2023/05/01 01:20:45;;;;;;;10.47;5.40;;;4.20;99.90;;;;;;5073610;28;20295;-79
2023/05/01 01:24:03;;;;;;;11.27;5.30;;;4.30;99.90;;;;;;5074192;28;20190;-81
2023/05/01 01:27:11;;;;;;;8.00;5.10;;;4.10;99.90;;;;;;5073608;28;20786;-80
2023/05/01 01:29:51;;;;;;;8.53;5.00;;;3.90;99.90;;;;;;5065463;28;20198;-80
2023/05/01 01:32:52;;;;;;;8.23;4.77;;;3.90;99.90;;;;;;5073907;28;20226;-78
2023/05/01 01:35:25;;;;;;;5.40;3.87;;;3.40;99.90;;;;;;5083034;28;20197;-78
2023/05/01 01:38:02;;;;;;;6.47;4.33;;;3.20;99.90;;;;;;5099201;28;20201;-80
2023/05/01 01:40:34;;;;;;;5.97;4.17;;;3.40;99.90;;;;;;5086565;28;20225;-80
2023/05/01 01:43:05;;;;;;;7.80;4.80;;;3.30;99.90;;;;;;5078079;28;20194;-80
2023/05/01 01:45:39;;;;;;;9.67;4.83;;;3.20;99.90;;;;;;5085411;28;20226;-80
2023/05/01 01:48:09;;;;;;;8.33;5.00;;;3.20;99.90;;;;;;5074146;28;20921;-80
2023/05/01 01:50:39;;;;;;;8.87;4.90;;;3.30;99.90;;;;;;5092536;28;20209;-80
2023/05/01 01:53:08;;;;;;;9.40;5.50;;;3.10;99.90;;;;;;5076551;28;20200;-80
2023/05/01 01:55:37;;;;;;;9.30;5.30;;;3.10;99.90;;;;;;5094457;28;20197;-80
2023/05/01 01:58:06;;;;;;;9.13;5.20;;;3.30;99.90;;;;;;5083502;28;20643;-79
2023/05/01 02:00:34;;;;;;;11.17;5.93;;;3.20;99.90;;;;;;5074772;28;20668;-79
2023/05/01 02:03:02;;;;;;;10.93;6.03;;;3.30;99.90;;;;;;5073824;28;20229;-79
2023/05/01 02:05:30;;;;;;;12.53;5.93;;;3.40;99.90;;;;;;5081473;28;20208;-80
2023/05/01 02:08:00;;;;;;;9.63;5.63;;;3.50;99.90;;;;;;5075324;28;20238;-79
2023/05/01 02:10:28;;;;;;;11.07;5.97;;;3.60;99.90;;;;;;5093430;28;20210;-82
2023/05/01 02:12:58;;;;;;;11.57;5.87;;;3.50;99.90;;;;;;5076926;28;20206;-81
2023/05/01 02:15:26;;;;;;;12.67;6.03;;;3.60;99.90;;;;;;5074489;28;20255;-80
2023/05/01 02:17:54;;;;;;;10.30;6.23;;;3.40;99.90;;;;;;5083368;28;20202;-79
2023/05/01 02:20:21;;;;;;;9.30;6.07;;;3.40;99.90;;;;;;5075647;28;20292;-79
2023/05/01 02:22:50;;;;;;;9.53;5.43;;;3.30;99.90;;;;;;5082058;28;20218;-79
2023/05/01 02:25:18;;;;;;;12.97;5.83;;;3.00;99.90;;;;;;5085248;28;20233;-79
2023/05/01 02:27:48;;;;;;;9.10;5.27;;;3.00;99.90;;;;;;5091861;28;20212;-79
2023/05/01 02:30:15;;;;;;;9.10;6.07;;;2.90;99.90;;;;;;5078942;28;20199;-79
2023/05/01 02:32:42;;;;;;;11.10;5.63;;;2.80;99.90;;;;;;5077516;28;20257;-79
2023/05/01 02:35:09;;;;;;;8.53;5.47;;;2.80;99.90;;;;;;5082500;28;20193;-79
2023/05/01 02:37:37;;;;;;;12.20;6.47;;;2.80;99.90;;;;;;5081575;28;20263;-80
2023/05/01 02:40:07;;;;;;;12.20;6.17;;;3.00;99.90;;;;;;5074891;28;20226;-80
2023/05/01 02:42:36;;;;;;;10.23;6.03;;;3.10;99.90;;;;;;5072209;28;20245;-80
2023/05/01 02:45:07;;;;;;;10.10;6.00;;;3.20;99.90;;;;;;5087608;28;20209;-79
2023/05/01 02:47:37;;;;;;;9.23;5.43;;;3.40;99.90;;;;;;5093429;28;20228;-80
2023/05/01 02:50:05;;;;;;;10.50;5.50;;;3.10;99.90;;;;;;5076165;28;20204;-79
2023/05/01 02:52:32;;;;;;;11.83;5.87;;;2.50;99.90;;;;;;5077235;28;20642;-79
2023/05/01 02:54:59;;;;;;;9.10;5.37;;;2.50;99.90;;;;;;5073607;28;20205;-79
2023/05/01 02:57:26;;;;;;;10.67;5.80;;;2.60;99.90;;;;;;5099256;28;20219;-80
2023/05/01 02:59:55;;;;;;;9.37;5.70;;;2.70;99.90;;;;;;5115352;28;20771;-79
2023/05/01 03:02:23;;;;;;;10.97;6.00;;;2.70;99.90;;;;;;5117742;28;20263;-80
2023/05/01 03:04:50;;;;;;;12.30;6.50;;;2.90;99.90;;;;;;5092948;28;20236;-78
2023/05/01 03:07:16;;;;;;;10.47;5.57;;;2.90;99.90;;;;;;5085910;28;20230;-80
2023/05/01 03:09:43;;;;;;;10.17;6.00;;;2.50;99.90;;;;;;5097329;28;20205;-80
2023/05/01 03:12:10;;;;;;;11.87;5.77;;;2.30;99.90;;;;;;5091959;28;20230;-79
2023/05/01 03:14:37;;;;;;;10.80;6.33;;;2.50;99.90;;;;;;5076039;28;20202;-79
2023/05/01 03:17:05;;;;;;;8.03;5.60;;;2.80;99.90;;;;;;5076936;28;20690;-78
2023/05/01 03:19:33;;;;;;;11.40;5.70;;;2.90;99.90;;;;;;5089104;28;20210;-79
2023/05/01 03:22:00;;;;;;;9.27;5.23;;;2.70;99.90;;;;;;5096166;28;20217;-79
2023/05/01 03:24:27;;;;;;;11.17;5.93;;;2.70;99.90;;;;;;5092369;28;20201;-79
2023/05/01 03:26:53;;;;;;;12.53;6.50;;;2.80;99.90;;;;;;5075585;28;20317;-80
2023/05/01 03:29:20;;;;;;;10.43;5.70;;;2.50;99.90;;;;;;5076260;28;20194;-80
2023/05/01 03:31:47;;;;;;;12.37;6.60;;;2.60;99.90;;;;;;5090621;28;20228;-80
2023/05/01 03:34:15;;;;;;;11.23;6.67;;;2.40;99.90;;;;;;5079708;28;20198;-79
2023/05/01 03:36:42;;;;;;;10.83;6.10;;;2.50;99.90;;;;;;5076440;28;20641;-79
2023/05/01 03:39:09;;;;;;;8.67;5.97;;;2.60;99.90;;;;;;5084920;28;20194;-80
2023/05/01 03:41:35;;;;;;;11.20;6.33;;;2.70;99.90;;;;;;5084751;28;20213;-78
2023/05/01 03:44:02;;;;;;;13.17;6.40;;;2.90;99.90;;;;;;5095348;28;20259;-77
2023/05/01 03:46:29;;;;;;;11.63;6.37;;;2.80;99.90;;;;;;5074945;28;20218;-79
2023/05/01 03:48:56;;;;;;;9.53;6.00;;;2.90;99.90;;;;;;5083677;28;20221;-80
2023/05/01 03:51:24;;;;;;;12.10;6.30;;;3.00;99.90;;;;;;5083937;28;20221;-79
2023/05/01 03:53:51;;;;;;;10.97;6.83;;;3.10;99.90;;;;;;5081143;28;20201;-78
2023/05/01 03:56:18;;;;;;;9.77;6.50;;;3.10;99.90;;;;;;5092370;28;20198;-79
2023/05/01 03:58:45;;;;;;;11.50;6.40;;;3.20;99.90;;;;;;5095292;28;20208;-80
2023/05/01 04:01:12;;;;;;;11.60;6.10;;;3.30;99.90;;;;;;5085537;28;20714;-79
2023/05/01 04:03:38;;;;;;;12.67;6.70;;;3.10;99.90;;;;;;5077189;28;20220;-78
2023/05/01 04:06:05;;;;;;;11.23;6.03;;;3.20;99.90;;;;;;5094034;28;20193;-78
2023/05/01 04:08:33;;;;;;;10.20;5.87;;;3.50;99.90;;;;;;5080294;28;20198;-78
2023/05/01 04:11:00;;;;;;;11.40;5.80;;;3.90;99.90;;;;;;5075219;28;20229;-78
2023/05/01 04:13:28;;;;;;;9.43;6.53;;;4.20;99.90;;;;;;5084499;28;20255;-80
2023/05/01 04:15:56;;;;;;;9.20;5.53;;;4.00;99.90;;;;;;5077362;28;20198;-79
2023/05/01 04:18:23;;;;;;;9.80;5.60;;;3.70;99.90;;;;;;5087778;28;20250;-80
2023/05/01 04:20:54;;;;;;;9.03;5.53;;;3.60;99.90;;;;;;5077583;28;20601;-79
2023/05/01 04:23:20;;;;;;;9.03;5.40;;;3.60;99.90;;;;;;5090470;28;20224;-80
2023/05/01 04:25:49;;;;;;;13.20;6.57;;;3.70;99.90;;;;;;5096179;28;20205;-79
2023/05/01 04:28:16;;;;;;;13.07;6.47;;;3.80;99.90;;;;;;5076216;28;20230;-81
2023/05/01 04:30:43;;;;;;;10.63;5.83;;;3.60;99.90;;;;;;5076255;28;20228;-81
2023/05/01 04:33:10;;;;;;;12.10;6.37;;;3.80;99.90;;;;;;5076711;28;20573;-80
2023/05/01 04:35:37;;;;;;;11.87;5.60;;;4.10;99.90;;;;;;5081208;28;20213;-81
2023/05/01 04:38:04;;;;;;;10.60;5.67;;;4.00;99.90;;;;;;5076631;28;20199;-80
2023/05/01 04:40:31;;;;;;;13.57;6.70;;;4.10;99.90;;;;;;5076250;28;20214;-80
2023/05/01 04:43:00;;;;;;;11.53;5.30;;;4.40;99.90;;;;;;5076063;28;20221;-78
2023/05/01 04:45:26;;;;;;;11.60;6.10;;;4.50;99.90;;;;;;5086715;28;20205;-80
2023/05/01 04:47:53;;;;;;;11.27;5.53;;;4.10;99.90;;;;;;5078892;28;20297;-80
2023/05/01 04:50:20;;;;;;;10.90;5.60;;;4.10;99.90;;;;;;5078253;28;20206;-79
2023/05/01 04:52:47;;;;;;;12.13;6.07;;;4.30;99.90;;;;;;5083366;28;20709;-80
2023/05/01 04:55:14;;;;;;;11.47;5.97;;;4.50;99.90;;;;;;5093253;28;20193;-79
2023/05/01 04:57:41;;;;;;;10.20;5.63;;;4.40;99.90;;;;;;5082366;28;20723;-79
2023/05/01 05:00:10;;;;;;;11.23;6.23;;;4.30;99.90;;;;;;5091633;28;20239;-79
2023/05/01 05:02:37;;;;;;;13.10;6.27;;;4.60;99.90;;;;;;5088629;28;20236;-80
2023/05/01 05:05:04;;;;;;;9.27;5.10;;;4.80;99.90;;;;;;5082815;28;20200;-80
2023/05/01 05:07:31;;;;;;;11.47;6.20;;;5.20;99.90;;;;;;5084817;28;20222;-79
2023/05/01 05:09:58;;;;;;;9.43;5.30;;;5.40;99.90;;;;;;5085264;28;20198;-80
2023/05/01 05:12:25;;;;;;;10.17;5.70;;;5.50;99.90;;;;;;5080435;28;20301;-79
2023/05/01 05:14:52;;;;;;;12.30;6.23;;;5.60;99.90;;;;;;5089693;28;20281;-80
2023/05/01 05:17:20;;;;;;;9.33;5.60;;;5.70;99.90;;;;;;5092052;28;20889;-80
2023/05/01 05:19:47;;;;;;;12.73;5.77;;;5.70;99.90;;;;;;5086894;28;20209;-80
2023/05/01 05:22:14;;;;;;;12.67;5.67;;;5.70;99.90;;;;;;5092382;28;20308;-80
2023/05/01 05:24:41;;;;;;;10.10;5.67;;;5.60;99.90;;;;;;5090484;28;20289;-79
2023/05/01 05:27:08;;;;;;;11.47;6.50;;;6.20;99.90;;;;;;5088118;28;20756;-80
2023/05/01 05:29:35;;;;;;;11.87;5.47;;;6.70;99.90;;;;;;5078997;28;20206;-79
2023/05/01 05:32:02;;;;;;;9.70;5.60;;;6.90;99.90;;;;;;5082373;28;20248;-78
2023/05/01 05:34:30;;;;;;;8.43;4.57;;;7.50;99.90;;;;;;5083991;28;20289;-79
2023/05/01 05:36:57;;;;;;;9.23;5.03;;;8.10;99.90;;;;;;5082068;28;20648;-80
2023/05/01 05:39:24;;;;;;;10.43;5.10;;;8.60;99.90;;;;;;5085787;28;20208;-80
2023/05/01 05:41:52;;;;;;;7.67;4.90;;;8.20;99.90;;;;;;5091072;28;20218;-80
2023/05/01 05:44:19;;;;;;;9.27;5.13;;;7.90;99.90;;;;;;5081359;28;20212;-80
2023/05/01 05:46:46;;;;;;;10.93;5.10;;;8.10;99.90;;;;;;5097981;28;20235;-80
2023/05/01 05:49:13;;;;;;;10.07;5.20;;;8.20;99.90;;;;;;5091308;28;20246;-79
2023/05/01 05:51:41;;;;;;;9.17;4.80;;;8.30;99.90;;;;;;5075471;28;20659;-80
2023/05/01 05:54:08;;;;;;;8.90;4.97;;;8.00;99.90;;;;;;5081236;28;20198;-81
2023/05/01 05:56:35;;;;;;;10.80;5.50;;;8.00;99.90;;;;;;5078182;28;20644;-79
2023/05/01 05:59:03;;;;;;;7.57;5.10;;;8.50;99.90;;;;;;5088856;28;20198;-78
2023/05/01 06:01:31;;;;;;;9.00;5.03;;;8.90;99.90;;;;;;5091905;28;20217;-78
2023/05/01 06:03:58;;;;;;;10.67;4.80;;;8.30;99.90;;;;;;5091825;28;20280;-78
2023/05/01 06:06:26;;;;;;;9.93;5.23;;;8.20;99.90;;;;;;5089052;28;20202;-79
2023/05/01 06:08:54;;;;;;;11.87;5.03;;;8.30;99.90;;;;;;5085004;28;20204;-78
2023/05/01 06:11:21;;;;;;;10.97;5.23;;;8.40;99.90;;;;;;5089913;28;20226;-79
2023/05/01 06:13:48;;;;;;;10.83;5.43;;;8.30;99.90;;;;;;5079616;28;20198;-80
2023/05/01 06:16:15;;;;;;;11.63;5.93;;;8.50;99.90;;;;;;5100999;28;20201;-79
2023/05/01 06:18:42;;;;;;;8.87;5.23;;;9.00;99.90;;;;;;5087937;28;20237;-79
2023/05/01 06:21:09;;;;;;;11.00;4.23;;;9.10;99.90;;;;;;5076154;28;20602;-78
2023/05/01 06:23:36;;;;;;;8.77;4.47;;;8.90;99.90;;;;;;5074746;28;20271;-78
2023/05/01 06:26:04;;;;;;;8.20;4.90;;;9.00;99.90;;;;;;5084128;28;20198;-80
2023/05/01 06:28:31;;;;;;;9.60;5.47;;;9.10;99.90;;;;;;5085344;28;20695;-79
2023/05/01 06:30:57;;;;;;;11.17;5.43;;;9.30;99.90;;;;;;5078790;28;20313;-79
2023/05/01 06:33:24;;;;;;;9.03;4.87;;;9.50;99.90;;;;;;5085743;28;20206;-83
2023/05/01 06:35:53;;;;;;;8.80;4.77;;;9.40;99.90;;;;;;5083200;28;20194;-79
2023/05/01 06:38:20;;;;;;;11.13;4.93;;;9.60;99.90;;;;;;5096348;28;20256;-78
2023/05/01 06:40:49;;;;;;;9.37;4.73;;;10.00;99.90;;;;;;5081808;28;20310;-78
2023/05/01 06:43:17;;;;;;;9.70;4.93;;;10.60;99.90;;;;;;5085196;28;20221;-78
2023/05/01 06:45:44;;;;;;;10.67;5.20;;;10.80;99.90;;;;;;5093706;28;20205;-80
2023/05/01 06:48:10;;;;;;;8.47;4.90;;;10.90;99.90;;;;;;5087868;28;20221;-79
2023/05/01 06:50:37;;;;;;;7.40;4.37;;;10.60;99.90;;;;;;5096689;28;20200;-79
2023/05/01 06:53:04;;;;;;;7.83;3.93;;;10.60;99.90;;;;;;5080524;28;20202;-78
2023/05/01 06:55:32;;;;;;;10.30;4.63;;;10.40;99.90;;;;;;5079460;28;20198;-78
2023/05/01 06:57:58;;;;;;;8.67;4.53;;;10.60;99.90;;;;;;5092256;28;20197;-78
2023/05/01 07:00:27;;;;;;;7.60;4.17;;;10.70;99.90;;;;;;5087566;28;20681;-78
2023/05/01 07:02:53;;;;;;;10.27;4.67;;;10.40;99.90;;;;;;5086054;28;20208;-78
2023/05/01 07:05:21;;;;;;;11.20;5.10;;;10.50;99.90;;;;;;5093092;28;20233;-78
2023/05/01 07:07:49;;;;;;;11.07;5.00;;;10.80;99.90;;;;;;5080040;28;20222;-78
2023/05/01 07:10:16;;;;;;;7.40;4.53;;;11.40;99.90;;;;;;5083477;28;20667;-78
2023/05/01 07:12:43;;;;;;;9.23;4.90;;;11.30;99.90;;;;;;5081017;28;20217;-79
2023/05/01 07:15:10;;;;;;;8.23;4.70;;;11.30;99.90;;;;;;5095842;28;20210;-78
2023/05/01 07:17:38;;;;;;;9.97;4.60;;;11.60;99.90;;;;;;5077901;28;20204;-79
2023/05/01 07:20:06;;;;;;;6.97;4.33;;;12.20;99.90;;;;;;5083020;28;20204;-79
2023/05/01 07:22:33;;;;;;;12.33;4.20;;;12.00;99.90;;;;;;5090995;28;20217;-79
2023/05/01 07:25:01;;;;;;;9.30;4.50;;;12.10;99.90;;;;;;5082731;28;20691;-79
2023/05/01 07:27:28;;;;;;;7.43;4.57;;;12.30;99.90;;;;;;5080742;28;20619;-79
2023/05/01 07:29:56;;;;;;;8.50;4.37;;;12.30;99.90;;;;;;5085296;28;20276;-79
2023/05/01 07:32:23;;;;;;;6.47;3.90;;;12.40;99.90;;;;;;5095069;28;20299;-79
2023/05/01 07:34:51;;;;;;;8.40;3.97;;;12.30;99.90;;;;;;5087167;28;20216;-79
2023/05/01 07:37:18;;;;;;;8.20;3.90;;;12.50;99.90;;;;;;5093610;28;20281;-79
2023/05/01 07:39:45;;;;;;;8.90;4.53;;;12.70;99.90;;;;;;5083422;28;20206;-78
2023/05/01 07:42:12;;;;;;;6.33;3.30;;;12.70;99.90;;;;;;5096446;28;20222;-78
2023/05/01 07:44:38;;;;;;;7.70;4.10;;;12.90;99.90;;;;;;5081206;28;20199;-78
2023/05/01 07:47:07;;;;;;;4.90;3.37;;;13.00;99.90;;;;;;5083565;28;20199;-79
2023/05/01 07:49:36;;;;;;;5.43;3.20;;;12.90;99.90;;;;;;5084611;28;20209;-79
2023/05/01 07:52:06;;;;;;;8.47;4.03;;;13.10;99.90;;;;;;5080257;28;20305;-79
2023/05/01 07:54:33;;;;;;;5.57;3.60;;;13.10;99.90;;;;;;5081782;28;20231;-78
2023/05/01 07:57:00;;;;;;;7.00;3.70;;;13.10;99.90;;;;;;5082342;28;20661;-78
2023/05/01 07:59:27;;;;;;;7.27;3.70;;;13.40;99.90;;;;;;5089372;28;20895;-78
2023/05/01 08:01:54;;;;;;;6.30;3.47;;;13.50;99.90;;;;;;5082270;28;20221;-80
2023/05/01 08:04:21;;;;;;;5.33;3.00;;;13.40;99.90;;;;;;5083630;28;20289;-78
2023/05/01 08:06:48;;;;;;;5.20;3.47;;;13.60;99.90;;;;;;5084101;28;20311;-78
2023/05/01 08:09:16;;;;;;;6.83;3.30;;;14.00;99.90;;;;;;5094238;28;20603;-79
2023/05/01 08:11:43;;;;;;;7.33;3.40;;;13.70;99.90;;;;;;5081045;28;20223;-78
2023/05/01 08:14:10;;;;;;;5.13;2.90;;;14.00;99.90;;;;;;5084816;28;20288;-78
2023/05/01 08:16:37;;;;;;;6.63;3.30;;;14.20;99.90;;;;;;5081564;28;20194;-79
2023/05/01 08:19:04;;;;;;;6.33;3.40;;;14.10;99.90;;;;;;5075863;28;20199;-78
2023/05/01 08:21:31;;;;;;;5.10;3.20;;;14.30;1.00;;;;;;5085993;28;20258;-80
2023/05/01 08:23:58;;;;;;;5.70;3.17;;;14.20;1.00;;;;;;5087768;28;20205;-79
2023/05/01 08:26:26;;;;;;;5.17;3.20;;;14.40;1.00;;;;;;5083654;28;20232;-79
2023/05/01 08:28:53;;;;;;;6.50;3.37;;;14.60;99.90;;;;;;5085346;28;20285;-78
2023/05/01 08:31:23;;;;;;;5.97;3.10;;;14.30;1.00;;;;;;5089294;28;20699;-79
2023/05/01 08:33:50;;;;;;;8.27;3.72;;;14.70;1.00;;;;;;5079831;28;20565;-80
2023/05/01 08:36:17;;;;;;;5.68;3.58;;;14.70;1.00;;;;;;5084070;28;20204;-79
2023/05/01 08:38:44;;;;;;;4.30;3.00;;;15.10;1.00;;;;;;5079044;28;20679;-78
2023/05/01 08:41:16;;;;;;;6.95;3.92;;;15.20;1.00;;;;;;5082933;28;20232;-78
2023/05/01 08:43:44;;;;;;;5.28;3.10;;;15.10;99.90;;;;;;5075123;28;20206;-78
2023/05/01 08:46:15;;;;;;;6.20;3.05;;;15.40;99.90;;;;;;5091447;28;20207;-78
2023/05/01 08:48:44;;;;;;;4.20;3.13;;;15.40;54.80;;;;;;5094538;28;20244;-77
2023/05/01 08:51:16;;;;;;;5.10;3.53;;;15.50;1.00;;;;;;5078446;28;20228;-78
2023/05/01 08:53:44;;;;;;;6.63;3.78;;;15.90;1.00;;;;;;5084012;28;20636;-77
2023/05/01 08:56:12;;;;;;;7.93;3.50;;;16.30;1.00;;;;;;5081759;28;20566;-79
2023/05/01 08:58:41;;;;;;;6.07;3.60;;;16.70;1.00;;;;;;5081234;28;20582;-79
2023/05/01 09:01:13;;;;;;;7.22;3.70;;;16.90;1.00;;;;;;5088046;28;20293;-79
2023/05/01 09:03:41;;;;;;;7.13;3.80;;;16.80;1.00;;;;;;5085096;28;20202;-79
2023/05/01 09:06:09;;;;;;;6.20;3.75;;;16.80;99.90;;;;;;5080611;28;20209;-79
2023/05/01 09:08:36;;;;;;;8.25;3.80;;;16.80;60.20;;;;;;5079698;28;20723;-79
2023/05/01 09:11:05;;;;;;;6.03;3.90;;;17.00;1.00;;;;;;5090797;28;20308;-79
2023/05/01 09:13:32;;;;;;;6.20;3.70;;;17.70;1.00;;;;;;5100541;28;20206;-79
2023/05/01 09:15:59;;;;;;;5.88;3.90;;;18.20;1.00;;;;;;5086033;28;20205;-80
2023/05/01 09:18:27;;;;;;;5.95;3.85;;;18.20;1.00;;;;;;5087809;28;20199;-79
2023/05/01 09:20:54;;;;;;;6.13;3.78;;;18.40;1.00;;;;;;5090935;28;20243;-78
2023/05/01 09:23:21;;;;;;;6.80;4.32;;;18.40;1.00;;;;;;5082337;28;20205;-78
2023/05/01 09:25:48;;;;;;;6.38;3.97;;;18.80;1.00;;;;;;5077264;28;20584;-78
2023/05/01 09:28:16;;;;;;;6.45;3.95;;;18.30;99.90;;;;;;5082591;28;20214;-80
2023/05/01 09:30:42;;;;;;;4.93;3.45;;;18.20;99.90;;;;;;5086328;28;20201;-79
2023/05/01 09:33:10;;;;;;;9.18;4.30;;;18.10;51.30;;;;;;5082721;28;20203;-79
2023/05/01 09:35:53;;;;;;;4.55;3.65;;;18.00;1.00;;;;;;5086892;28;20212;-79
2023/05/01 09:38:22;;;;;;;6.80;4.05;;;17.70;1.00;;;;;;5085959;28;20251;-78
2023/05/01 09:40:49;;;;;;;7.50;3.85;;;18.20;1.00;;;;;;5088772;28;20248;-78
2023/05/01 09:43:26;;;;;;;5.45;4.47;;;18.40;1.00;;;;;;5089112;28;20229;-78
2023/05/01 09:46:04;;;;;;;7.10;4.30;;;18.30;1.00;;;;;;5091344;28;20206;-78
2023/05/01 09:48:32;;;;;;;6.85;4.25;;;18.20;1.00;;;;;;5081411;28;20957;-78
2023/05/01 09:51:00;;;;;;;5.25;4.32;;;18.00;1.00;;;;;;5096545;28;20371;-77
2023/05/01 09:53:40;;;;;;;7.57;4.57;;;17.90;1.00;;;;;;5076160;28;20689;-79
2023/05/01 09:56:09;;;;;;;9.52;4.38;;;18.30;1.00;;;;;;5075708;28;20239;-78
2023/05/01 09:58:36;;;;;;;6.05;3.97;;;18.30;99.90;;;;;;5083943;28;20268;-78
2023/05/01 10:01:02;;;;;;;7.10;4.45;;;18.70;99.90;;;;;;5079918;28;20226;-78
2023/05/01 10:03:31;;;;;;;6.03;4.47;;;19.40;99.90;;;;;;5089724;28;20204;-78
2023/05/01 10:06:02;;;;;;;5.90;4.32;;;19.50;99.90;;;;;;5079967;28;20328;-79
2023/05/01 10:08:45;;;;;;;7.18;4.10;;;20.00;99.90;;;;;;5087305;28;20778;-79
2023/05/01 10:11:12;;;;;;;8.63;4.03;;;19.60;99.90;;;;;;5086486;28;20212;-79
2023/05/01 10:13:38;;;;;;;4.70;4.07;;;19.40;27.70;;;;;;5083411;28;20208;-79
2023/05/01 10:16:07;;;;;;;6.57;4.57;;;19.80;1.00;;;;;;5087254;28;20198;-81
2023/05/01 10:18:34;;;;;;;10.15;4.97;;;20.20;1.00;;;;;;5088290;28;20194;-80
2023/05/01 10:21:03;;;;;;;4.75;3.83;;;20.50;1.00;;;;;;5090369;28;20701;-77
2023/05/01 10:23:30;;;;;;;7.30;3.92;;;20.80;1.00;;;;;;5085485;28;20198;-77
2023/05/01 10:25:58;;;;;;;4.57;3.45;;;20.50;1.00;;;;;;5088718;28;20197;-78
2023/05/01 10:28:27;;;;;;;6.65;4.60;;;20.50;1.00;;;;;;5091898;28;20220;-78
2023/05/01 10:30:55;;;;;;;4.40;3.58;;;20.60;1.00;;;;;;5083063;28;20226;-78
2023/05/01 10:33:23;;;;;;;4.38;3.40;;;20.70;1.00;;;;;;5085888;28;20203;-78
2023/05/01 10:35:57;;;;;;;5.50;4.00;;;20.80;1.00;;;;;;5086998;28;20206;-79
2023/05/01 10:38:32;;;;;;;4.45;3.67;;;20.80;1.00;;;;;;5083509;28;20201;-79
2023/05/01 10:40:59;;;;;;;6.40;4.38;;;20.50;99.90;;;;;;5091914;28;20893;-78
2023/05/01 10:43:27;;;;;;;5.85;4.22;;;20.30;99.90;;;;;;5088394;28;20198;-78
2023/05/01 10:46:15;;;;;;;6.28;3.88;;;20.50;99.90;;;;;;5088921;28;20252;-79
2023/05/01 10:49:03;;;;;;;6.15;3.83;;;20.30;99.90;;;;;;5092908;28;20248;-79
2023/05/01 10:51:33;;;;;;;7.30;4.13;;;20.40;99.90;;;;;;5084514;28;20226;-80
2023/05/01 10:54:26;;;;;;;6.35;4.00;;;20.60;99.90;;;;;;5086542;28;20204;-80
2023/05/01 10:56:55;;;;;;;5.82;3.70;;;20.60;14.30;;;;;;5078970;28;20212;-79
2023/05/01 10:59:22;;;;;;;8.25;3.42;;;20.80;1.00;;;;;;5076453;28;20245;-80
2023/05/01 11:01:51;;;;;;;5.45;3.95;;;21.00;1.00;;;;;;5077003;28;20222;-80
2023/05/01 11:04:55;;;;;;;6.47;4.65;;;20.50;1.00;;;;;;5081371;28;20197;-80
2023/05/01 11:07:23;;;;;;;5.35;3.53;;;20.80;1.00;;;;;;5097641;28;20208;-79
2023/05/01 11:09:56;;;;;;;4.70;3.80;;;20.10;1.00;;;;;;5096566;28;20225;-79
2023/05/01 11:12:49;;;;;;;5.97;3.58;;;19.80;1.00;;;;;;5085396;28;20228;-80
2023/05/01 11:15:26;;;;;;;5.03;3.70;;;20.80;1.00;;;;;;5082911;28;20562;-79
2023/05/01 11:17:54;;;;;;;6.03;3.33;;;21.10;1.00;;;;;;5091155;28;20203;-79
2023/05/01 11:20:50;;;;;;;5.00;3.60;;;21.80;1.00;;;;;;5080736;28;20214;-80
2023/05/01 11:23:18;;;;;;;5.05;3.70;;;21.70;1.00;;;;;;5076453;28;20220;-79
2023/05/01 11:25:49;;;;;;;4.72;3.67;;;21.40;1.00;;;;;;5076792;28;20205;-79
2023/05/01 11:28:23;;;;;;;4.88;3.55;;;21.30;99.90;;;;;;5076946;28;20206;-80
2023/05/01 11:30:50;;;;;;;5.40;3.83;;;21.20;99.90;;;;;;5076533;28;20225;-79
2023/05/01 11:33:25;;;;;;;5.00;3.80;;;21.10;99.90;;;;;;5095280;28;20210;-79
2023/05/01 11:36:03;;;;;;;6.18;3.60;;;21.50;99.90;;;;;;5096256;28;20262;-79
2023/05/01 11:38:30;;;;;;;4.97;3.80;;;21.50;99.90;;;;;;5079389;28;20293;-78
2023/05/01 11:41:04;;;;;;;5.20;3.13;;;21.70;99.90;;;;;;5078778;28;20343;-79
2023/05/01 11:43:31;;;;;;;6.57;3.40;;;21.80;99.90;;;;;;5082205;28;20626;-79
2023/05/01 11:46:03;;;;;;;3.95;3.00;;;21.60;44.20;;;;;;5082991;28;20214;-79
2023/05/01 11:48:31;;;;;;;6.05;3.10;;;21.70;1.00;;;;;;5081344;28;20203;-80
2023/05/01 11:50:58;;;;;;;4.97;3.45;;;21.60;1.00;;;;;;5094591;28;20270;-78
2023/05/01 11:53:25;;;;;;;6.30;3.75;;;21.30;1.00;;;;;;5090432;28;20280;-78
2023/05/01 11:55:52;;;;;;;4.00;3.05;;;21.30;1.00;;;;;;5089260;28;20213;-78
2023/05/01 11:58:36;;;;;;;4.85;3.35;;;21.00;1.00;;;;;;5084611;28;20202;-78
2023/05/01 12:01:06;;;;;;;4.65;3.30;;;20.80;1.00;;;;;;5094261;28;20234;-77
2023/05/01 12:03:41;;;;;;;3.45;3.15;;;21.30;1.00;;;;;;5089557;28;20854;-77
2023/05/01 12:06:10;;;;;;;4.25;2.95;;;21.60;1.00;;;;;;5090610;28;20196;-78
2023/05/01 12:08:41;;;;;;;3.85;2.80;;;21.70;1.00;;;;;;5088050;28;20202;-78
2023/05/01 12:11:08;;;;;;;3.38;2.80;;;22.00;1.00;;;;;;5078768;28;20217;-78
2023/05/01 12:13:36;;;;;;;3.90;3.05;;;22.00;1.00;;;;;;5080889;28;20208;-78
2023/05/01 12:16:04;;;;;;;3.65;2.70;;;21.60;1.00;;;;;;5086641;28;20204;-78
2023/05/01 12:18:32;;;;;;;4.82;3.03;;;21.40;1.00;;;;;;5088528;28;20228;-78
2023/05/01 12:21:00;;;;;;;3.83;3.15;;;22.10;1.00;;;;;;5079602;28;20316;-78
2023/05/01 12:23:34;;;;;;;2.90;2.58;;;22.30;1.00;;;;;;5091137;28;20206;-79
2023/05/01 12:26:03;;;;;;;3.95;2.80;;;22.80;1.00;;;;;;5081030;28;20289;-78
2023/05/01 12:28:30;;;;;;;6.30;3.38;;;23.00;1.00;;;;;;5088914;28;20217;-78
2023/05/01 12:31:03;;;;;;;3.13;2.88;;;22.30;99.90;;;;;;5088242;28;20606;-78
2023/05/01 12:33:30;;;;;;;3.72;2.67;;;21.50;99.90;;;;;;5094162;28;20212;-78
2023/05/01 12:36:09;;;;;;;4.30;2.80;;;21.90;99.90;;;;;;5082412;28;20279;-78
2023/05/01 12:38:37;;;;;;;3.38;3.00;;;21.30;99.90;;;;;;5099808;28;20237;-79
2023/05/01 12:41:06;;;;;;;2.60;2.40;;;21.70;99.90;;;;;;5077991;28;20230;-79
2023/05/01 12:43:34;;;;;;;4.28;2.38;;;22.50;99.90;;;;;;5075195;28;20212;-78
2023/05/01 12:46:03;;;;;;;2.60;2.25;;;23.00;99.90;;;;;;5090507;28;20630;-78
2023/05/01 12:48:31;;;;;;;2.28;2.08;;;23.10;99.90;;;;;;5090398;28;20202;-80
2023/05/01 12:51:00;;;;;;;4.80;3.38;;;23.00;99.90;;;;;;5076763;28;20288;-80
2023/05/01 12:53:28;;;;;;;3.38;2.58;;;22.90;87.80;;;;;;5086712;28;20630;-79
2023/05/01 12:55:56;;;;;;;3.85;2.20;;;22.30;1.00;;;;;;5084040;28;20925;-79
2023/05/01 12:58:24;;;;;;;3.75;2.10;;;22.10;1.00;;;;;;5083230;28;20210;-79
2023/05/01 13:00:52;;;;;;;2.30;2.10;;;21.90;1.00;;;;;;5082777;28;20229;-79